createdAt,value
2023-02-19T00:01:22.355Z,101826.47
2023-02-19T00:03:52.296Z,101834.84
2023-02-19T00:06:20.655Z,101837.00
2023-02-19T00:08:47.456Z,101832.59
2023-02-19T00:11:17.517Z,101836.72
2023-02-19T00:13:46.348Z,101825.88
2023-02-19T00:16:22.116Z,101843.25
2023-02-19T00:18:49.115Z,101837.22
2023-02-19T00:21:16.469Z,101838.03
2023-02-19T00:23:43.043Z,101838.88
2023-02-19T00:26:18.192Z,101833.47
2023-02-19T00:28:46.872Z,101838.03
2023-02-19T00:31:26.008Z,101842.41
2023-02-19T00:33:56.629Z,101850.31
2023-02-19T00:36:23.725Z,101853.50
2023-02-19T00:38:50.947Z,101844.00
2023-02-19T00:41:19.710Z,101850.25
2023-02-19T00:43:56.637Z,101845.84
2023-02-19T00:46:24.836Z,101863.81
2023-02-19T00:48:52.647Z,101866.75
2023-02-19T00:51:20.969Z,101848.56
2023-02-19T00:53:48.256Z,101864.88
2023-02-19T00:56:14.905Z,101873.00
2023-02-19T00:58:41.904Z,101865.38
2023-02-19T01:01:09.726Z,101868.09
2023-02-19T01:03:37.623Z,101875.41
2023-02-19T01:06:06.297Z,101863.72
2023-02-19T01:08:33.672Z,101861.00
2023-02-19T01:11:00.860Z,101870.22
2023-02-19T01:13:28.404Z,101866.44
2023-02-19T01:16:14.165Z,101872.94
2023-02-19T01:18:41.181Z,101872.94
2023-02-19T01:21:12.576Z,101878.63
2023-02-19T01:23:39.738Z,101876.97
2023-02-19T01:26:13.107Z,101873.44
2023-02-19T01:28:39.843Z,101870.72
2023-02-19T01:31:08.950Z,101874.50
2023-02-19T01:33:35.677Z,101868.59
2023-02-19T01:36:07.080Z,101868.00
2023-02-19T01:38:33.987Z,101870.97
2023-02-19T01:41:03.437Z,101874.50
2023-02-19T01:43:32.752Z,101866.63
2023-02-19T01:45:59.647Z,101867.44
2023-02-19T01:48:32.405Z,101873.69
2023-02-19T01:51:14.589Z,101883.94
2023-02-19T01:53:46.003Z,101879.13
2023-02-19T01:56:16.060Z,101885.84
2023-02-19T01:58:42.904Z,101888.56
2023-02-19T02:01:10.088Z,101874.44
2023-02-19T02:03:40.561Z,101886.59
2023-02-19T02:06:10.179Z,101899.44
2023-02-19T02:08:55.744Z,101886.94
2023-02-19T02:11:22.454Z,101886.59
2023-02-19T02:13:50.573Z,101890.38
2023-02-19T02:16:40.670Z,101891.75
2023-02-19T02:19:16.062Z,101896.63
2023-02-19T02:22:06.990Z,101892.28
2023-02-19T02:25:05.523Z,101877.03
2023-02-19T02:27:51.482Z,101887.06
2023-02-19T02:30:43.988Z,101892.50
2023-02-19T02:33:13.623Z,101896.03
2023-02-19T02:35:52.998Z,101896.03
2023-02-19T02:38:24.217Z,101896.84
2023-02-19T02:40:51.569Z,101894.41
2023-02-19T02:43:18.126Z,101898.19
2023-02-19T02:45:44.773Z,101895.47
2023-02-19T02:48:17.035Z,101907.38
2023-02-19T02:50:58.285Z,101903.28
2023-02-19T02:53:59.766Z,101909.78
2023-02-19T02:56:26.819Z,101907.06
2023-02-19T02:58:55.586Z,101906.81
2023-02-19T03:01:51.636Z,101912.25
2023-02-19T03:04:58.856Z,101916.84
2023-02-19T03:07:30.033Z,101913.31
2023-02-19T03:10:00.527Z,101919.56
2023-02-19T03:12:49.941Z,101923.09
2023-02-19T03:15:35.815Z,101932.91
2023-02-19T03:18:25.048Z,101931.69
2023-02-19T03:20:54.891Z,101923.38
2023-02-19T03:23:43.287Z,101929.81
2023-02-19T03:26:12.041Z,101931.97
2023-02-19T03:29:01.391Z,101938.22
2023-02-19T03:31:31.713Z,101930.66
2023-02-19T03:34:02.090Z,101936.31
2023-02-19T03:36:42.843Z,101946.34
2023-02-19T03:39:10.908Z,101952.84
2023-02-19T03:41:52.778Z,101955.78
2023-02-19T03:44:34.552Z,101944.44
2023-02-19T03:47:32.827Z,101952.84
2023-02-19T03:49:59.329Z,101971.25
2023-02-19T03:52:39.263Z,101965.81
2023-02-19T03:55:08.493Z,101967.47
2023-02-19T03:57:47.315Z,101961.47
2023-02-19T04:00:17.245Z,101963.38
2023-02-19T04:03:08.151Z,101973.72
2023-02-19T04:05:41.362Z,101971.25
2023-02-19T04:08:14.139Z,101973.38
2023-02-19T04:10:41.771Z,101973.16
2023-02-19T04:13:16.657Z,101960.88
2023-02-19T04:15:47.129Z,101966.09
2023-02-19T04:18:20.381Z,101978.25
2023-02-19T04:20:48.271Z,101978.25
2023-02-19T04:23:19.996Z,101983.66
2023-02-19T04:25:53.279Z,101988.03
2023-02-19T04:28:19.929Z,101985.56
2023-02-19T04:30:47.055Z,101993.69
2023-02-19T04:33:13.693Z,101989.09
2023-02-19T04:35:40.264Z,102008.34
2023-02-19T04:38:06.988Z,102006.47
2023-02-19T04:40:33.605Z,102018.13
2023-02-19T04:43:00.150Z,102018.34
2023-02-19T04:45:26.705Z,102029.00
2023-02-19T04:47:53.240Z,102033.00
2023-02-19T04:50:19.861Z,102034.06
2023-02-19T04:52:46.395Z,102030.28
2023-02-19T04:55:12.942Z,102043.63
2023-02-19T04:57:39.574Z,102048.47
2023-02-19T05:00:08.009Z,102043.28
2023-02-19T05:02:34.682Z,102046.00
2023-02-19T05:05:01.225Z,102062.84
2023-02-19T05:07:27.807Z,102064.50
2023-02-19T05:09:54.361Z,102071.09
2023-02-19T05:12:20.931Z,102067.09
2023-02-19T05:14:47.450Z,102080.66
2023-02-19T05:17:14.044Z,102077.84
2023-02-19T05:19:40.589Z,102084.34
2023-02-19T05:22:07.196Z,102101.81
2023-02-19T05:24:34.170Z,102099.91
2023-02-19T05:27:00.856Z,102104.06
2023-02-19T05:29:27.432Z,102107.09
2023-02-19T05:31:54.125Z,102103.06
2023-02-19T05:34:20.693Z,102098.25
2023-02-19T05:36:50.211Z,102101.78
2023-02-19T05:39:16.766Z,102106.13
2023-02-19T05:41:43.356Z,102109.09
2023-02-19T05:44:11.185Z,102096.69
2023-02-19T05:46:37.912Z,102091.25
2023-02-19T05:49:04.542Z,102089.72
2023-02-19T05:51:31.093Z,102098.94
2023-02-19T05:53:57.980Z,102098.09
2023-02-19T05:56:35.188Z,102107.31
2023-02-19T05:59:06.765Z,102105.19
2023-02-19T06:01:34.305Z,102101.88
2023-02-19T06:04:01.268Z,102116.78
2023-02-19T06:06:28.105Z,102109.44
2023-02-19T06:08:54.810Z,102112.16
2023-02-19T06:11:21.542Z,102114.38
2023-02-19T06:13:50.212Z,102125.38
2023-02-19T06:16:17.842Z,102125.84
2023-02-19T06:18:45.170Z,102128.91
2023-02-19T06:21:12.757Z,102122.66
2023-02-19T06:23:39.952Z,102129.16
2023-02-19T06:26:21.303Z,102136.44
2023-02-19T06:28:50.219Z,102134.34
2023-02-19T06:31:18.362Z,102141.41
2023-02-19T06:33:45.172Z,102152.75
2023-02-19T06:36:14.665Z,102136.69
2023-02-19T06:38:41.684Z,102150.88
2023-02-19T06:41:09.916Z,102146.03
2023-02-19T06:43:36.660Z,102159.84
2023-02-19T06:46:05.577Z,102148.16
2023-02-19T06:48:33.121Z,102159.03
2023-02-19T06:50:59.764Z,102157.69
2023-02-19T06:53:26.570Z,102154.78
2023-02-19T06:56:01.401Z,102158.78
2023-02-19T06:58:28.236Z,102163.13
2023-02-19T07:00:55.576Z,102154.16
2023-02-19T07:03:23.061Z,102171.53
2023-02-19T07:05:49.757Z,102168.09
2023-02-19T07:08:19.569Z,102176.50
2023-02-19T07:10:46.186Z,102176.84
2023-02-19T07:13:12.845Z,102182.75
2023-02-19T07:15:39.417Z,102193.63
2023-02-19T07:18:10.277Z,102187.38
2023-02-19T07:20:38.044Z,102188.19
2023-02-19T07:23:04.609Z,102196.91
2023-02-19T07:25:31.776Z,102209.91
2023-02-19T07:27:58.321Z,102210.97
2023-02-19T07:30:25.235Z,102211.56
2023-02-19T07:32:51.849Z,102220.88
2023-02-19T07:35:18.411Z,102223.03
2023-02-19T07:37:45.016Z,102232.22
2023-02-19T07:40:11.641Z,102239.53
2023-02-19T07:42:38.802Z,102243.69
2023-02-19T07:45:05.580Z,102255.38
2023-02-19T07:47:32.168Z,102255.13
2023-02-19T07:49:58.740Z,102259.72
2023-02-19T07:52:25.263Z,102270.03
2023-02-19T07:54:51.840Z,102283.97
2023-02-19T07:57:18.447Z,102270.84
2023-02-19T07:59:45.223Z,102289.59
2023-02-19T08:02:35.627Z,102293.41
2023-02-19T08:05:02.798Z,102297.19
2023-02-19T08:07:33.621Z,102300.94
2023-02-19T08:10:19.258Z,102307.81
2023-02-19T08:13:04.655Z,102310.06
2023-02-19T08:15:32.981Z,102310.06
2023-02-19T08:17:59.527Z,102324.47
2023-02-19T08:20:26.238Z,102322.00
2023-02-19T08:22:52.891Z,102321.75
2023-02-19T08:25:19.519Z,102322.56
2023-02-19T08:27:46.135Z,102320.66
2023-02-19T08:30:12.990Z,102311.69
2023-02-19T08:32:39.531Z,102308.97
2023-02-19T08:35:06.237Z,102313.38
2023-02-19T08:37:32.816Z,102308.75
2023-02-19T08:39:59.333Z,102319.03
2023-02-19T08:42:25.878Z,102313.94
2023-02-19T08:46:42.918Z,102318.66
2023-02-19T08:49:09.736Z,102333.09
2023-02-19T08:51:36.234Z,102327.31
2023-02-19T08:54:04.250Z,102329.66
2023-02-19T08:56:30.788Z,102342.41
2023-02-19T08:58:57.335Z,102338.84
2023-02-19T09:01:24.013Z,102325.28
2023-02-19T09:03:50.756Z,102321.97
2023-02-19T09:06:19.557Z,102317.38
2023-02-19T09:08:46.470Z,102313.00
2023-02-19T09:11:13.658Z,102323.06
2023-02-19T09:13:40.842Z,102335.31
2023-02-19T09:16:07.577Z,102335.56
2023-02-19T09:18:34.248Z,102344.19
2023-02-19T09:21:02.681Z,102348.81
2023-02-19T09:23:29.608Z,102350.09
2023-02-19T09:26:01.028Z,102353.88
2023-02-19T09:28:28.060Z,102364.50
2023-02-19T09:30:54.957Z,102375.97
2023-02-19T09:33:21.553Z,102376.53
2023-02-19T09:35:48.158Z,102372.78
2023-02-19T09:38:14.764Z,102393.19
2023-02-19T09:40:41.446Z,102395.91
2023-02-19T09:43:12.801Z,102390.47
2023-02-19T09:45:40.223Z,102392.16
2023-02-19T09:48:07.207Z,102395.69
2023-02-19T09:50:39.195Z,102401.13
2023-02-19T09:53:33.835Z,102416.63
2023-02-19T09:56:01.425Z,102429.13
2023-02-19T09:58:32.404Z,102432.91
2023-02-19T10:01:01.724Z,102436.47
2023-02-19T10:03:35.011Z,102427.50
2023-02-19T10:06:06.257Z,102426.63
2023-02-19T10:08:37.712Z,102426.41
2023-02-19T10:11:06.670Z,102439.19
2023-02-19T10:13:35.712Z,102442.72
2023-02-19T10:16:05.269Z,102435.41
2023-02-19T10:18:39.668Z,102436.47
2023-02-19T10:21:06.174Z,102441.91
2023-02-19T10:23:33.387Z,102463.63
2023-02-19T10:26:00.735Z,102463.63
2023-02-19T10:28:31.061Z,102466.34
2023-02-19T10:30:59.657Z,102466.09
2023-02-19T10:33:26.701Z,102466.09
2023-02-19T10:36:05.737Z,102482.41
2023-02-19T10:38:46.929Z,102487.63
2023-02-19T10:41:22.561Z,102485.94
2023-02-19T10:44:18.684Z,102479.47
2023-02-19T10:46:51.660Z,102481.50
2023-02-19T10:49:30.410Z,102481.25
2023-02-19T10:52:02.451Z,102477.44
2023-02-19T10:54:32.883Z,102481.59
2023-02-19T10:57:30.409Z,102483.84
2023-02-19T11:00:22.615Z,102485.28
2023-02-19T11:02:49.178Z,102482.56
2023-02-19T11:05:19.972Z,102470.38
2023-02-19T11:07:50.099Z,102481.25
2023-02-19T11:10:25.527Z,102478.31
2023-02-19T11:12:53.894Z,102496.03
2023-02-19T11:15:20.386Z,102487.28
2023-02-19T11:18:03.810Z,102477.25
2023-02-19T11:20:32.102Z,102469.09
2023-02-19T11:23:15.120Z,102468.25
2023-02-19T11:25:47.186Z,102465.53
2023-02-19T11:28:38.005Z,102468.84
2023-02-19T11:31:19.874Z,102465.53
2023-02-19T11:33:56.994Z,102468.03
2023-02-19T11:36:23.420Z,102468.25
2023-02-19T11:38:50.023Z,102469.09
2023-02-19T11:42:01.714Z,102460.94
2023-02-19T11:44:34.232Z,102462.00
2023-02-19T11:47:33.230Z,102466.00
2023-02-19T11:50:05.361Z,102460.56
2023-02-19T11:52:42.200Z,102452.16
2023-02-19T11:55:30.791Z,102461.19
2023-02-19T11:58:48.455Z,102463.91
2023-02-19T12:01:24.304Z,102454.91
2023-02-19T12:04:12.387Z,102463.91
2023-02-19T12:06:53.934Z,102470.16
2023-02-19T12:09:26.173Z,102476.88
2023-02-19T12:11:59.557Z,102483.75
2023-02-19T12:14:41.046Z,102488.38
2023-02-19T12:17:52.168Z,102489.19
2023-02-19T12:20:24.298Z,102489.19
2023-02-19T12:22:58.279Z,102502.53
2023-02-19T12:25:57.058Z,102505.25
2023-02-19T12:28:38.895Z,102504.19
2023-02-19T12:31:28.468Z,102498.75
2023-02-19T12:34:19.894Z,102505.03
2023-02-19T12:36:58.508Z,102504.19
2023-02-19T12:39:45.751Z,102519.44
2023-02-19T12:42:15.114Z,102512.34
2023-02-19T12:44:48.907Z,102522.16
2023-02-19T12:47:29.374Z,102520.50
2023-02-19T12:50:24.307Z,102545.56
2023-02-19T12:52:59.984Z,102538.47
2023-02-19T12:55:31.697Z,102541.78
2023-02-19T12:58:04.214Z,102539.06
2023-02-19T13:00:53.792Z,102552.66
2023-02-19T13:03:25.717Z,102551.81
2023-02-19T13:06:09.706Z,102563.53
2023-02-19T13:08:57.852Z,102567.31
2023-02-19T13:11:40.032Z,102575.22
2023-02-19T13:14:15.209Z,102586.09
2023-02-19T13:16:48.560Z,102583.38
2023-02-19T13:19:15.229Z,102588.81
2023-02-19T13:22:03.148Z,102581.47
2023-02-19T13:24:36.587Z,102564.59
2023-02-19T13:27:24.790Z,102575.22
2023-02-19T13:30:25.119Z,102573.16
2023-02-19T13:32:54.464Z,102580.22
2023-02-19T13:35:58.454Z,102585.66
2023-02-19T13:38:25.536Z,102583.78
2023-02-19T13:40:57.825Z,102588.38
2023-02-19T13:43:27.431Z,102597.38
2023-02-19T13:45:59.044Z,102589.22
2023-02-19T13:48:37.070Z,102594.44
2023-02-19T13:51:13.086Z,102609.69
2023-02-19T13:53:45.830Z,102621.38
2023-02-19T13:56:36.507Z,102619.47
2023-02-19T13:59:12.063Z,102617.00
2023-02-19T14:01:53.735Z,102618.66
2023-02-19T14:04:44.099Z,102626.00
2023-02-19T14:07:10.596Z,102619.47
2023-02-19T14:09:37.272Z,102619.28
2023-02-19T14:12:15.465Z,102622.81
2023-02-19T14:14:52.104Z,102623.88
2023-02-19T14:17:42.613Z,102632.03
2023-02-19T14:20:09.115Z,102631.19
2023-02-19T14:22:47.639Z,102629.31
2023-02-19T14:25:38.630Z,102624.94
2023-02-19T14:28:17.210Z,102630.38
2023-02-19T14:30:54.196Z,102632.25
2023-02-19T14:33:29.575Z,102645.63
2023-02-19T14:36:03.373Z,102632.88
2023-02-19T14:38:41.434Z,102627.44
2023-02-19T14:41:13.095Z,102614.03
2023-02-19T14:43:40.546Z,102622.19
2023-02-19T14:46:18.441Z,102614.03
2023-02-19T14:48:48.371Z,102610.50
2023-02-19T14:51:44.189Z,102611.13
2023-02-19T14:54:31.193Z,102615.72
2023-02-19T14:56:59.043Z,102614.88
2023-02-19T14:59:30.133Z,102601.28
2023-02-19T15:02:16.154Z,102612.16
2023-02-19T15:04:43.308Z,102616.78
2023-02-19T15:07:16.366Z,102611.13
2023-02-19T15:09:50.439Z,102605.69
2023-02-19T15:12:30.272Z,102612.53
2023-02-19T15:15:02.461Z,102623.63
2023-02-19T15:17:34.381Z,102632.63
2023-02-19T15:20:05.581Z,102625.53
2023-02-19T15:22:32.669Z,102622.81
2023-02-19T15:25:03.631Z,102629.06
2023-02-19T15:27:30.906Z,102630.16
2023-02-19T15:29:57.447Z,102633.69
2023-02-19T15:32:26.675Z,102629.91
2023-02-19T15:34:55.805Z,102635.34
2023-02-19T15:37:24.773Z,102619.84
2023-02-19T15:39:53.303Z,102628.00
2023-02-19T15:42:32.247Z,102638.06
2023-02-19T15:45:07.578Z,102637.00
2023-02-19T15:47:39.802Z,102641.59
2023-02-19T15:50:15.345Z,102643.50
2023-02-19T15:52:47.941Z,102637.00
2023-02-19T15:55:43.132Z,102637.00
2023-02-19T15:58:12.532Z,102644.56
2023-02-19T16:00:49.564Z,102658.16
2023-02-19T16:03:20.275Z,102658.16
2023-02-19T16:05:58.267Z,102671.75
2023-02-19T16:08:32.705Z,102665.50
2023-02-19T16:11:02.023Z,102661.09
2023-02-19T16:13:30.925Z,102675.53
2023-02-19T16:16:03.537Z,102670.94
2023-02-19T16:18:30.842Z,102667.38
2023-02-19T16:20:57.660Z,102666.53
2023-02-19T16:23:25.383Z,102669.25
2023-02-19T16:26:00.236Z,102666.53
2023-02-19T16:28:29.680Z,102671.97
2023-02-19T16:31:06.377Z,102668.44
2023-02-19T16:33:43.883Z,102674.69
2023-02-19T16:36:22.558Z,102663.81
2023-02-19T16:39:16.867Z,102657.78
2023-02-19T16:41:46.962Z,102656.97
2023-02-19T16:44:25.462Z,102664.31
2023-02-19T16:46:55.489Z,102657.78
2023-02-19T16:49:23.709Z,102646.09
2023-02-19T16:51:51.003Z,102652.34
2023-02-19T16:54:17.504Z,102649.63
2023-02-19T16:56:44.023Z,102660.72
2023-02-19T16:59:10.518Z,102660.72
2023-02-19T17:01:37.631Z,102670.78
2023-02-19T17:04:11.069Z,102675.38
2023-02-19T17:06:38.129Z,102678.94
2023-02-19T17:09:06.481Z,102685.19
2023-02-19T17:11:33.045Z,102690.63
2023-02-19T17:13:59.552Z,102689.81
2023-02-19T17:16:29.179Z,102684.97
2023-02-19T17:18:56.036Z,102683.34
2023-02-19T17:21:26.856Z,102680.81
2023-02-19T17:23:57.112Z,102674.56
2023-02-19T17:26:27.888Z,102678.34
2023-02-19T17:28:58.424Z,102690.06
2023-02-19T17:31:25.408Z,102699.88
2023-02-19T17:33:52.054Z,102692.53
2023-02-19T17:36:32.596Z,102692.78
2023-02-19T17:39:00.115Z,102698.38
2023-02-19T17:41:27.008Z,102698.38
2023-02-19T17:43:53.637Z,102689.41
2023-02-19T17:46:26.101Z,102707.63
2023-02-19T17:48:53.587Z,102694.84
2023-02-19T17:51:20.627Z,102688.41
2023-02-19T17:53:47.159Z,102704.72
2023-02-19T17:56:28.329Z,102698.38
2023-02-19T17:58:56.147Z,102710.16
2023-02-19T18:01:23.404Z,102706.53
2023-02-19T18:03:50.516Z,102714.13
2023-02-19T18:06:17.251Z,102721.22
2023-02-19T18:08:51.882Z,102720.13
2023-02-19T18:11:20.024Z,102710.34
2023-02-19T18:13:48.051Z,102715.78
2023-02-19T18:16:15.689Z,102711.41
2023-02-19T18:18:42.877Z,102704.31
2023-02-19T18:21:10.537Z,102698.06
2023-02-19T18:23:37.468Z,102692.63
2023-02-19T18:26:07.632Z,102697.19
2023-02-19T18:28:35.597Z,102678.16
2023-02-19T18:31:02.874Z,102679.03
2023-02-19T18:33:29.561Z,102666.47
2023-02-19T18:35:56.106Z,102668.34
2023-02-19T18:38:22.597Z,102656.66
2023-02-19T18:40:49.265Z,102644.97
2023-02-19T18:43:15.810Z,102653.94
2023-02-19T18:45:43.395Z,102657.72
2023-02-19T18:48:10.048Z,102665.88
2023-02-19T18:50:36.573Z,102676.75
2023-02-19T18:53:03.378Z,102670.50
2023-02-19T18:55:29.916Z,102662.34
2023-02-19T18:57:56.520Z,102659.84
2023-02-19T19:00:26.519Z,102666.34
2023-02-19T19:02:59.977Z,102668.00
2023-02-19T19:05:27.301Z,102678.03
2023-02-19T19:07:56.479Z,102680.75
2023-02-19T19:10:23.680Z,102674.75
2023-02-19T19:12:50.729Z,102675.31
2023-02-19T19:15:18.603Z,102689.97
2023-02-19T19:17:46.087Z,102695.41
2023-02-19T19:20:13.775Z,102677.22
2023-02-19T19:22:40.756Z,102675.56
2023-02-19T19:25:08.694Z,102684.75
2023-02-19T19:27:35.235Z,102669.31
2023-02-19T19:30:01.928Z,102677.44
2023-02-19T19:32:28.936Z,102669.31
2023-02-19T19:34:55.585Z,102671.16
2023-02-19T19:37:22.077Z,102670.34
2023-02-19T19:39:48.727Z,102663.00
2023-02-19T19:42:15.397Z,102670.59
2023-02-19T19:44:45.324Z,102674.13
2023-02-19T19:47:12.021Z,102670.59
2023-02-19T19:49:38.710Z,102667.88
2023-02-19T19:52:05.408Z,102661.34
2023-02-19T19:54:32.041Z,102667.03
2023-02-19T19:56:58.745Z,102680.63
2023-02-19T19:59:25.545Z,102667.25
2023-02-19T20:01:54.799Z,102662.63
2023-02-19T20:04:23.259Z,102660.16
2023-02-19T20:06:50.380Z,102658.28
2023-02-19T20:09:17.991Z,102659.09
2023-02-19T20:11:49.013Z,102656.38
2023-02-19T20:14:17.702Z,102666.44
2023-02-19T20:16:44.890Z,102662.88
2023-02-19T20:19:11.513Z,102659.09
2023-02-19T20:21:38.128Z,102656.63
2023-02-19T20:24:05.025Z,102668.31
2023-02-19T20:26:32.236Z,102665.59
2023-02-19T20:28:59.120Z,102661.22
2023-02-19T20:31:26.425Z,102664.97
2023-02-19T20:33:53.190Z,102654.97
2023-02-19T20:36:20.232Z,102649.53
2023-02-19T20:38:48.706Z,102654.97
2023-02-19T20:41:15.271Z,102652.47
2023-02-19T20:43:42.163Z,102644.56
2023-02-19T20:46:08.793Z,102639.69
2023-02-19T20:48:35.367Z,102634.50
2023-02-19T20:51:02.010Z,102632.84
2023-02-19T20:53:29.870Z,102633.88
2023-02-19T20:55:56.845Z,102630.13
2023-02-19T20:58:24.478Z,102639.56
2023-02-19T21:00:53.548Z,102645.84
2023-02-19T21:03:21.463Z,102646.91
2023-02-19T21:05:48.102Z,102634.38
2023-02-19T21:08:17.218Z,102642.53
2023-02-19T21:10:45.625Z,102631.88
2023-02-19T21:13:13.282Z,102626.44
2023-02-19T21:15:39.893Z,102644.63
2023-02-19T21:18:06.511Z,102643.34
2023-02-19T21:20:33.230Z,102632.50
2023-02-19T21:22:59.788Z,102623.72
2023-02-19T21:25:26.560Z,102625.38
2023-02-19T21:27:53.084Z,102627.25
2023-02-19T21:30:19.768Z,102627.50
2023-02-19T21:32:46.365Z,102625.63
2023-02-19T21:35:12.882Z,102628.56
2023-02-19T21:37:42.340Z,102609.75
2023-02-19T21:40:09.675Z,102608.13
2023-02-19T21:42:36.287Z,102594.78
2023-02-19T21:45:03.691Z,102604.78
2023-02-19T21:47:30.187Z,102603.75
2023-02-19T21:49:56.670Z,102602.06
2023-02-19T21:52:23.455Z,102593.34
2023-02-19T21:54:50.153Z,102586.25
2023-02-19T21:57:16.638Z,102588.09
2023-02-19T21:59:43.303Z,102591.69
2023-02-19T22:02:10.489Z,102597.94
2023-02-19T22:04:36.966Z,102591.91
2023-02-19T22:07:03.510Z,102599.22
2023-02-19T22:09:30.104Z,102593.19
2023-02-19T22:11:56.897Z,102590.69
2023-02-19T22:14:23.405Z,102588.22
2023-02-19T22:16:50.023Z,102588.44
2023-02-19T22:19:16.606Z,102590.13
2023-02-19T22:21:44.533Z,102595.75
2023-02-19T22:24:20.026Z,102596.81
2023-02-19T22:26:46.922Z,102587.84
2023-02-19T22:29:15.181Z,102577.00
2023-02-19T22:31:41.842Z,102572.59
2023-02-19T22:34:09.091Z,102568.47
2023-02-19T22:36:39.130Z,102570.34
2023-02-19T22:39:07.149Z,102576.00
2023-02-19T22:41:34.324Z,102572.47
2023-02-19T22:44:01.440Z,102570.56
2023-02-19T22:46:30.128Z,102571.63
2023-02-19T22:48:57.399Z,102580.84
2023-02-19T22:51:24.728Z,102578.34
2023-02-19T22:53:54.716Z,102577.75
2023-02-19T22:56:23.996Z,102575.88
2023-02-19T22:58:50.882Z,102577.75
2023-02-19T23:01:18.370Z,102571.50
2023-02-19T23:03:53.179Z,102564.41
2023-02-19T23:06:37.868Z,102561.09
2023-02-19T23:09:11.004Z,102558.38
2023-02-19T23:11:39.150Z,102553.78
2023-02-19T23:14:07.196Z,102555.88
2023-02-19T23:16:36.581Z,102551.75
2023-02-19T23:19:08.458Z,102547.16
2023-02-19T23:21:35.004Z,102543.81
2023-02-19T23:24:01.635Z,102544.88
2023-02-19T23:26:28.203Z,102545.13
2023-02-19T23:28:54.773Z,102537.56
2023-02-19T23:31:21.795Z,102534.84
2023-02-19T23:33:48.441Z,102540.28
2023-02-19T23:36:15.832Z,102535.09
2023-02-19T23:38:46.544Z,102535.09
2023-02-19T23:41:16.393Z,102525.50
2023-02-19T23:43:43.652Z,102524.69
2023-02-19T23:46:14.432Z,102517.81
2023-02-19T23:48:41.280Z,102505.28
2023-02-19T23:51:07.830Z,102507.41
2023-02-19T23:53:34.309Z,102507.41
2023-02-19T23:56:01.002Z,102515.53
2023-02-19T23:58:27.551Z,102513.69
